Αναφορές METAR Αεροδρομίων

 

LGTS - THESSALONIKI - GREECE
Ενημερώθηκε: 24/05/2017 10:50
Μερικώς νεφελώδης
Μερικώς νεφελώδης
 Ανεμος από Ν
Ανεμος: Ν 11 km/h
Θερμοκρασία: 23°C
Σημ. Δρόσου: 10°C
Υγρασία: 44%
Βαρόμετρο: 1017 hPa
Clouds: Μερικώς νεφελώδης
Visibility: 10 km
Cloud details: Μερικώς νεφελώδης 762 m
2017/05/24 07:50 LGTS 240750Z 19006KT 9999 SCT025 23/10 Q1017 NOSIG
LGLR - LARTISA - GREECE
Ενημερώθηκε: 08/05/2017 12:50
NOT Current
Μερικώς νεφελώδης
Μερικώς νεφελώδης
 Ανεμος από ΔΒΔ
Ανεμος: ΔΒΔ 13 km/h
Θερμοκρασία: 26°C
Σημ. Δρόσου: 4°C
Υγρασία: 24%
Βαρόμετρο: 1005 hPa
Clouds: Μερικώς νεφελώδης
Visibility: 10 km
Cloud details: Μερικώς νεφελώδης 1067 m
2017/05/08 09:50 LGLR 080950Z 29007KT 9999 SCT035 26/04 Q1005 RMK FEW080 BLU
 
LGKZ - KOZANI - GREECE
Ενημερώθηκε: 24/05/2017 10:50
Αραιές Νεφώσεις
Αραιές Νεφώσεις
 Ανεμος από calm
Ανεμος: Απνοια
Θερμοκρασία: 18°C
Σημ. Δρόσου: 13°C
Υγρασία: 73%
Βαρόμετρο: 1018 hPa
Clouds: Αραιές Νεφώσεις
Visibility: 10 km
Cloud details: Αραιές Νεφώσεις 762 m
2017/05/24 07:50 LGKZ 240750Z 00000KT 9999 FEW025 18/13 Q1018
LGKV - KAVALA - GREECE
Ενημερώθηκε: 24/05/2017 10:50
Σχεδόν νεφελώδης
Σχεδόν νεφελώδης
 Ανεμος από Α
Ανεμος: Α 7 km/h
Θερμοκρασία: 20°C
Σημ. Δρόσου: 11°C
Υγρασία: 56%
Βαρόμετρο: 1017 hPa
Clouds: Σχεδόν νεφελώδης
Visibility: 10 km
Cloud details: Μερικώς νεφελώδης 762 m
Σχεδόν νεφελώδης 2438 m
2017/05/24 07:50 LGKV 240750Z 10004KT 9999 SCT025 BKN080 20/11 Q1017
 
LGIO - IOANNINA - GREECE
Ενημερώθηκε: 24/05/2017 10:50
Αραιές Νεφώσεις
Αραιές Νεφώσεις
 Ανεμος από varies
Ανεμος: varies 0 km/h
Θερμοκρασία: 19°C
Σημ. Δρόσου: 13°C
Υγρασία: 68%
Βαρόμετρο: 1020 hPa
Clouds: Αραιές Νεφώσεις
Visibility: 10 km
Cloud details: Αραιές Νεφώσεις 488 m
2017/05/24 07:50 LGIO 240750Z /////KT 9999 FEW016 19/13 Q1020
LGBL - BOLOS - GREECE
Ενημερώθηκε: 24/05/2017 10:50
Αραιές Νεφώσεις
Αραιές Νεφώσεις
 Ανεμος από Α
Ανεμος: Α 9 km/h
Θερμοκρασία: 22°C
Σημ. Δρόσου: 15°C
Υγρασία: 65%
Βαρόμετρο: 1017 hPa
Clouds: Αραιές Νεφώσεις
Visibility: 10 km
Cloud details: Αραιές Νεφώσεις 914 m
2017/05/24 07:50 LGBL 240750Z 08005KT 9999 FEW030 22/15 Q1017
 
LGMT - MITILINI - GREECE
Ενημερώθηκε: 24/05/2017 10:50
Αίθριος
Αίθριος
 Ανεμος από ΑΒΑ
Ανεμος: ΑΒΑ 9 km/h
Θερμοκρασία: 22°C
Σημ. Δρόσου: 12°C
Υγρασία: 53%
Βαρόμετρο: 1017 hPa
Περίληψη: Αίθριος
Visibility: greater than 10 km
2017/05/24 07:50 LGMT 240750Z 07005KT CAVOK 22/12 Q1017
LGAV - ATHENS - GREECE
Ενημερώθηκε: 24/05/2017 10:20
Αραιές Νεφώσεις
Αραιές Νεφώσεις
 Ανεμος από varies
Ανεμος: varies 6 km/h
Θερμοκρασία: 23°C
Σημ. Δρόσου: 11°C
Υγρασία: 47%
Βαρόμετρο: 1017 hPa
Clouds: Αραιές Νεφώσεις
Visibility: 10 km
Cloud details: Αραιές Νεφώσεις 914 m
2017/05/24 07:20 LGAV 240720Z VRB03KT 9999 FEW030 23/11 Q1017 NOSIG
 
LGRP - RODOS - GREECE
Ενημερώθηκε: 24/05/2017 10:20
Αίθριος
Αίθριος
 Ανεμος από Δ
Ανεμος: Δ 19 km/h
Θερμοκρασία: 22°C
Σημ. Δρόσου: 13°C
Υγρασία: 57%
Βαρόμετρο: 1014 hPa
Περίληψη: Αίθριος
Visibility: greater than 10 km
2017/05/24 07:20 LGRP 240720Z 26010KT CAVOK 22/13 Q1014 NOSIG
LGIR - HRAKLIO/KRITI - GREECE
Ενημερώθηκε: 24/05/2017 10:20
Αίθριος
Αίθριος
 Ανεμος από Β
Ανεμος: Β 7 km/h
Θερμοκρασία: 23°C
Σημ. Δρόσου: 15°C
Υγρασία: 61%
Βαρόμετρο: 1016 hPa
Περίληψη: Αίθριος
Visibility: greater than 10 km
2017/05/24 07:20 LGIR 240720Z 35004KT CAVOK 23/15 Q1016 NOSIG
 
LGMK - MIKONOS - GREECE
Ενημερώθηκε: 24/05/2017 10:50
Αίθριος
Αίθριος
 Ανεμος από ΝΝΔ
Ανεμος: ΝΝΔ 7 km/h
Θερμοκρασία: 24°C
Σημ. Δρόσου: 12°C
Υγρασία: 47%
Βαρόμετρο: 1017 hPa
Περίληψη: Αίθριος
Visibility: greater than 10 km
2017/05/24 07:50 LGMK 240750Z 20004KT CAVOK 24/12 Q1017
LGKR - KERKIRA - GREECE
Ενημερώθηκε: 24/05/2017 10:20
Μερικώς νεφελώδης
Μερικώς νεφελώδης
 Ανεμος από ΑΝΑ
Ανεμος: ΑΝΑ 7 km/h
Θερμοκρασία: 23°C
Σημ. Δρόσου: 18°C
Υγρασία: 74%
Βαρόμετρο: 1017 hPa
Clouds: Μερικώς νεφελώδης
Visibility: 10 km
Cloud details: Αραιές Νεφώσεις 457 m
Μερικώς νεφελώδης 914 m
2017/05/24 07:20 LGKR 240720Z 12004KT 9999 FEW015 SCT030 23/18 Q1017 NOSIG